KMXF/MXF METAR and TAF weather

Enter ICAO airport designator
Station Type Date Time Source
KMXF METAR 2020/02/25 10:56 UTC NOAA

KMXF 251056Z AUTO 00000KT 10SM FEW011 SCT019 17/16 A2979 RMK AO2 SLP090 T01650157


Station Type Date Time Source
KMXF Decoded METAR 2020/02/25 10:56 UTC NOAA

Maxwell Air Force Base / Montgomery, AL, United States (KMXF) 32-23N 086-22W
Feb 25, 2020 - 05:56 AM EST / 2020.02.25 1056 UTC
Wind: Calm:0
Visibility: 10 mile(s):0
Sky conditions: partly cloudy
Temperature: 61.7 F (16.5 C)
Dew Point: 60.3 F (15.7 C)
Relative Humidity: 95%
Pressure (altimeter): 29.79 in. Hg (1008 hPa)
ob: KMXF 251056Z AUTO 00000KT 10SM FEW011 SCT019 17/16 A2979 RMK AO2 SLP090 T01650157
cycle: 11

Station Type Date Time Source
KMXF TAF 2020/02/24 22:03 UTC NOAA

TAF TAF
AMD KMXF 242200Z 2422/2602 02006KT 8000 -RA OVC010 510103 QNH2982INS
BECMG 2422/2423 15006KT 6000 -RA OVC009 510203 QNH2981INS
BECMG 2505/2506 15006KT 3200 BR OVC005 510203 QNH2976INS
BECMG 2511/2512 VRB06KT 6000 BR OVC009 QNH2979INS
BECMG 2513/2514 VRB06KT 9999 NSW BKN012 QNH2985INS
BECMG 2515/2516 27006KT 9999 BKN025 QNH2983INS
BECMG 2520/2521 VRB06KT 9999 SCT030 QNH2983INS TX18/2517Z TN11/2423Z LAST NO
AMDS AFT 2504 NEXT 2512

Example: see airport list